CheckWX is a tool to help pilots better visualize weather data.  It is not intended as a substitute for an official pre-flight weather briefing.

00:59:56 UTC

VTPO TAF
Sukhothai Airport
Thailand
TAF VTPO 270500Z 2706/2806 20005KT 9999 FEW025

May-27@
06:00 UTC

May-27 @ 06:00 UTC

May-28@
06:00 UTC

May-28 @ 06:00 UTC

TAF VTPO 270500Z 2706/2806 20005KT 9999 FEW025
Wind
  • 200° at 5 KTS
Cloud Levels
  • Few at 2,500' AGL